• Join FlightAware (Why Join?)
  • Login
  • US Flag 
05:48PM EDT


 

Airport Tracker/Info


-or-


 

Live Flight TrackerFlight Track Log ✈ VH-KLS ✈ 10-Jul-2013 ✈ YOLW - YPKA / KTA

Flight Track Log - Related Links

Times and Time Zones

All times are in EDT time to prevent confusion due to time zone crossing. See the VH-KLS flight status page for this flight to view local times or setup timezone preferences in your user account.

Time Position Orientation Groundspeed Altitude Reporting Facility
EDT Latitude Longitude Course Direction KTS MPH feet Rate Location/Type
10:22PM -21.5797 115.2696 59° Northeast 100  Level Aus ATC (Calculated)
10:23PM -21.5529 115.3169 59° Northeast 100  Level Aus ATC (Calculated)
10:25PM -21.5181 115.3780 59° Northeast  Level FlightAware Approximate
10:26PM -21.4974 115.4143 58° Northeast  Level FlightAware Approximate
10:26PM -21.5009 115.4084 58° Northeast 100  Level Aus ATC (Calculated)
10:27PM -21.4767 115.4505 58° Northeast  Level FlightAware Approximate
10:28PM -21.4660 115.4695 58° Northeast  Level FlightAware Approximate
10:28PM -21.4521 115.4942 58° Northeast 100  Level Aus ATC (Calculated)
10:29PM -21.4453 115.5058 58° Northeast  Level FlightAware Approximate
10:29PM -21.4521 115.4942 58° Northeast 100  Level Aus ATC (Calculated)
10:31PM -21.4182 115.5534 58° Northeast  Level FlightAware Approximate
10:32PM -21.3975 115.5896 58° Northeast  Level FlightAware Approximate
10:33PM -21.3768 115.6258 58° Northeast  Level FlightAware Approximate
10:34PM -21.3560 115.6620 58° Northeast  Level FlightAware Approximate
10:34PM -21.3147 115.7351 58° Northeast 100  Level Aus ATC (Calculated)
10:35PM -21.2774 115.8003 58° Northeast 100  Level Aus ATC (Calculated)
10:37PM -21.2504 115.8473 58° Northeast  Level FlightAware Approximate
10:38PM -21.2295 115.8834 58° Northeast  Level FlightAware Approximate
10:39PM -21.2087 115.9195 58° Northeast  Level FlightAware Approximate
10:40PM -21.1878 115.9557 58° Northeast  Level FlightAware Approximate
10:41PM -21.1670 115.9918 58° Northeast  Level FlightAware Approximate
10:42PM -21.1461 116.0278 58° Northeast  Level FlightAware Approximate
10:43PM -21.1253 116.0639 58° Northeast  Level FlightAware Approximate
10:44PM -21.1044 116.1000 58° Northeast  Level FlightAware Approximate
10:45PM -21.0835 116.1361 58° Northeast  Level FlightAware Approximate
10:46PM -21.0626 116.1721 58° Northeast  Level FlightAware Approximate
10:47PM -21.0417 116.2082 58° Northeast  Level FlightAware Approximate
10:48PM -21.0208 116.2442 58° Northeast  Level FlightAware Approximate
10:49PM -20.9999 116.2802 58° Northeast  Level FlightAware Approximate
10:50PM -20.9790 116.3162 58° Northeast  Level FlightAware Approximate
10:51PM -20.9580 116.3522 58° Northeast  Level FlightAware Approximate
10:52PM -20.9371 116.3882 58° Northeast  Level FlightAware Approximate
10:53PM -20.9162 116.4242 58° Northeast  Level FlightAware Approximate
10:54PM -20.8952 116.4602 58° Northeast  Level FlightAware Approximate
10:55PM -20.8743 116.4961 58° Northeast  Level FlightAware Approximate
10:55PM -20.8210 116.5919 57° Northeast 100  Level Aus ATC (Calculated)
10:57PM -20.7911 116.6419 57° Northeast  Level FlightAware Approximate
10:58PM -20.7697 116.6775 57° Northeast  Level FlightAware Approximate
10:59PM -20.7484 116.7132 57° Northeast  Level FlightAware Approximate
11:00PM -20.7270 116.7488 57° Northeast  Level FlightAware Approximate
11:01PM -20.7122 116.7733 57° Northeast  Level Estimated
11:02PM -20.7122 116.7733 199° South  Level Estimated
11:03PM -20.7122 116.7733 199° South  Level Estimated